createdAt,value
2022-11-27T00:01:09.817Z,43.30
2022-11-27T00:03:36.984Z,44.73
2022-11-27T00:06:04.234Z,52.13
2022-11-27T00:08:31.458Z,48.87
2022-11-27T00:10:58.548Z,47.67
2022-11-27T00:13:25.634Z,44.63
2022-11-27T00:15:52.842Z,48.33
2022-11-27T00:18:19.981Z,51.73
2022-11-27T00:20:47.103Z,44.77
2022-11-27T00:23:14.157Z,41.77
2022-11-27T00:25:41.268Z,49.60
2022-11-27T00:28:08.343Z,43.10
2022-11-27T00:30:35.408Z,44.77
2022-11-27T00:33:02.570Z,41.67
2022-11-27T00:35:29.686Z,42.70
2022-11-27T00:37:56.826Z,44.33
2022-11-27T00:40:23.922Z,46.23
2022-11-27T00:42:51.009Z,42.97
2022-11-27T00:45:18.098Z,44.93
2022-11-27T00:47:45.174Z,45.87
2022-11-27T00:50:12.296Z,46.33
2022-11-27T00:52:39.442Z,53.57
2022-11-27T00:55:06.831Z,46.30
2022-11-27T00:57:33.952Z,42.23
2022-11-27T01:00:01.032Z,45.50
2022-11-27T01:02:28.154Z,41.20
2022-11-27T01:04:55.283Z,47.20
2022-11-27T01:07:22.478Z,44.67
2022-11-27T01:09:49.617Z,42.53
2022-11-27T01:12:16.691Z,44.60
2022-11-27T01:14:43.779Z,40.03
2022-11-27T01:17:10.862Z,39.50
2022-11-27T01:19:38.274Z,42.50
2022-11-27T01:22:05.398Z,47.77
2022-11-27T01:24:32.471Z,49.03
2022-11-27T01:26:59.591Z,63.70
2022-11-27T01:29:26.673Z,52.53
2022-11-27T01:31:53.791Z,60.83
2022-11-27T01:34:20.883Z,45.17
2022-11-27T01:36:48.342Z,63.13
2022-11-27T01:39:16.731Z,46.53
2022-11-27T01:41:44.200Z,48.60
2022-11-27T01:44:27.209Z,37.30
2022-11-27T01:46:56.618Z,56.60
2022-11-27T01:49:31.661Z,38.90
2022-11-27T01:52:01.975Z,45.07
2022-11-27T01:54:41.477Z,36.57
2022-11-27T01:57:10.808Z,32.27
2022-11-27T01:59:38.097Z,33.23
2022-11-27T02:02:05.345Z,31.60
2022-11-27T02:04:32.686Z,57.67
2022-11-27T02:07:00.494Z,48.17
2022-11-27T02:09:28.591Z,37.20
2022-11-27T02:12:06.597Z,33.57
2022-11-27T02:14:39.891Z,38.13
2022-11-27T02:17:10.172Z,33.20
2022-11-27T02:19:56.447Z,31.33
2022-11-27T02:22:42.565Z,27.90
2022-11-27T02:25:32.920Z,38.40
2022-11-27T02:28:26.281Z,34.90
2022-11-27T02:30:57.788Z,33.37
2022-11-27T02:33:25.454Z,32.50
2022-11-27T02:35:59.858Z,30.80
2022-11-27T02:38:30.634Z,38.07
2022-11-27T02:40:57.699Z,27.07
2022-11-27T02:43:27.617Z,35.73
2022-11-27T02:45:56.062Z,29.37
2022-11-27T02:48:30.795Z,26.37
2022-11-27T02:50:57.886Z,25.77
2022-11-27T02:53:29.940Z,27.73
2022-11-27T02:55:57.450Z,22.37
2022-11-27T02:58:27.374Z,25.43
2022-11-27T03:00:55.032Z,24.77
2022-11-27T03:03:23.705Z,19.10
2022-11-27T03:05:52.834Z,20.77
2022-11-27T03:08:25.908Z,23.30
2022-11-27T03:11:03.136Z,18.50
2022-11-27T03:13:31.691Z,22.43
2022-11-27T03:16:02.249Z,21.87
2022-11-27T03:18:37.832Z,19.30
2022-11-27T03:21:23.602Z,19.63
2022-11-27T03:23:50.730Z,20.50
2022-11-27T03:26:17.840Z,20.63
2022-11-27T03:28:45.805Z,20.53
2022-11-27T03:31:13.132Z,18.73
2022-11-27T03:33:40.698Z,17.87
2022-11-27T03:36:12.682Z,19.73
2022-11-27T03:38:39.914Z,18.13
2022-11-27T03:41:10.494Z,18.90
2022-11-27T03:43:42.858Z,20.17
2022-11-27T03:46:11.915Z,18.80
2022-11-27T03:48:43.957Z,18.07
2022-11-27T03:51:17.162Z,18.57
2022-11-27T03:53:56.695Z,18.27
2022-11-27T03:56:41.294Z,17.37
2022-11-27T03:59:08.352Z,17.27
2022-11-27T04:01:35.652Z,17.07
2022-11-27T04:04:02.833Z,15.07
2022-11-27T04:06:29.976Z,17.10
2022-11-27T04:08:57.052Z,17.50
2022-11-27T04:11:24.155Z,15.70
2022-11-27T04:13:52.225Z,16.23
2022-11-27T04:16:19.958Z,18.77
2022-11-27T04:18:47.115Z,17.00
2022-11-27T04:21:14.274Z,16.87
2022-11-27T04:23:41.489Z,18.07
2022-11-27T04:26:08.648Z,15.20
2022-11-27T04:28:35.911Z,18.37
2022-11-27T04:31:03.147Z,15.53
2022-11-27T04:33:30.330Z,14.90
2022-11-27T04:35:57.488Z,17.93
2022-11-27T04:38:24.556Z,15.03
2022-11-27T04:40:54.664Z,15.47
2022-11-27T04:43:21.784Z,17.27
2022-11-27T04:45:48.887Z,15.27
2022-11-27T04:48:15.965Z,17.47
2022-11-27T04:50:43.064Z,15.20
2022-11-27T04:53:10.227Z,14.50
2022-11-27T04:55:37.301Z,15.53
2022-11-27T04:58:04.481Z,14.50
2022-11-27T05:00:31.645Z,14.17
2022-11-27T05:02:58.779Z,13.07
2022-11-27T05:05:25.977Z,13.33
2022-11-27T05:07:53.119Z,11.53
2022-11-27T05:10:20.250Z,12.20
2022-11-27T05:12:47.326Z,13.80
2022-11-27T05:15:14.398Z,12.63
2022-11-27T05:17:41.540Z,9.60
2022-11-27T05:20:08.961Z,11.57
2022-11-27T05:22:36.066Z,12.20
2022-11-27T05:25:03.176Z,10.47
2022-11-27T05:27:30.257Z,9.67
2022-11-27T05:29:57.397Z,11.03
2022-11-27T05:32:24.697Z,10.07
2022-11-27T05:34:51.904Z,11.30
2022-11-27T05:37:19.957Z,10.97
2022-11-27T05:39:47.326Z,10.73
2022-11-27T05:42:14.448Z,9.93
2022-11-27T05:44:41.646Z,10.43
2022-11-27T05:47:09.062Z,10.60
2022-11-27T05:49:36.681Z,10.33
2022-11-27T05:52:03.769Z,9.50
2022-11-27T05:54:30.852Z,10.17
2022-11-27T05:56:57.951Z,10.70
2022-11-27T05:59:25.095Z,11.43
2022-11-27T06:01:52.306Z,10.77
2022-11-27T06:04:19.654Z,13.57
2022-11-27T06:06:46.736Z,10.50
2022-11-27T06:09:13.917Z,9.30
2022-11-27T06:11:42.183Z,12.67
2022-11-27T06:14:10.119Z,9.63
2022-11-27T06:16:37.607Z,10.10
2022-11-27T06:19:04.917Z,10.50
2022-11-27T06:21:31.982Z,11.30
2022-11-27T06:23:59.055Z,11.90
2022-11-27T06:26:27.729Z,10.30
2022-11-27T06:28:56.033Z,10.97
2022-11-27T06:31:24.764Z,11.03
2022-11-27T06:33:52.589Z,10.70
2022-11-27T06:36:20.199Z,9.87
2022-11-27T06:38:47.447Z,12.50
2022-11-27T06:41:19.337Z,12.07
2022-11-27T06:43:46.642Z,9.60
2022-11-27T06:46:17.774Z,9.47
2022-11-27T06:48:45.646Z,12.03
2022-11-27T06:51:14.133Z,9.33
2022-11-27T06:53:41.796Z,10.80
2022-11-27T06:56:10.758Z,9.53
2022-11-27T06:58:38.060Z,7.20
2022-11-27T07:01:06.431Z,9.63
2022-11-27T07:03:33.651Z,8.33
2022-11-27T07:06:01.557Z,8.73
2022-11-27T07:08:29.009Z,9.97
2022-11-27T07:11:02.022Z,7.90
2022-11-27T07:13:30.195Z,8.13
2022-11-27T07:16:00.445Z,8.53
2022-11-27T07:18:27.745Z,7.87
2022-11-27T07:20:56.644Z,8.73
2022-11-27T07:23:24.278Z,7.30
2022-11-27T07:25:51.397Z,7.40
2022-11-27T07:28:19.181Z,8.53
2022-11-27T07:30:46.530Z,7.10
2022-11-27T07:33:13.632Z,9.00
2022-11-27T07:35:40.837Z,7.97
2022-11-27T07:38:07.925Z,7.37
2022-11-27T07:40:35.007Z,9.87
2022-11-27T07:43:02.123Z,6.83
2022-11-27T07:45:29.257Z,8.90
2022-11-27T07:47:56.546Z,7.63
2022-11-27T07:50:23.643Z,8.80
2022-11-27T07:52:50.734Z,8.07
2022-11-27T07:55:17.847Z,6.97
2022-11-27T07:57:44.911Z,8.00
2022-11-27T08:00:12.302Z,8.13
2022-11-27T08:02:39.392Z,7.70
2022-11-27T08:05:12.119Z,8.63
2022-11-27T08:07:40.137Z,8.63
2022-11-27T08:10:08.272Z,8.63
2022-11-27T08:12:35.586Z,7.40
2022-11-27T08:15:04.624Z,9.33
2022-11-27T08:17:31.895Z,7.73
2022-11-27T08:19:59.019Z,8.27
2022-11-27T08:22:26.153Z,8.37
2022-11-27T08:24:53.535Z,7.43
2022-11-27T08:27:20.713Z,10.90
2022-11-27T08:29:47.989Z,9.63
2022-11-27T08:32:15.202Z,8.63
2022-11-27T08:34:42.672Z,9.63
2022-11-27T08:37:10.288Z,7.80
2022-11-27T08:39:37.399Z,10.10
2022-11-27T08:42:04.478Z,9.33
2022-11-27T08:44:31.536Z,9.57
2022-11-27T08:46:58.628Z,9.33
2022-11-27T08:49:25.915Z,8.30
2022-11-27T08:51:53.009Z,7.73
2022-11-27T08:54:20.184Z,8.63
2022-11-27T08:56:47.237Z,8.07
2022-11-27T08:59:14.315Z,7.47
2022-11-27T09:01:41.411Z,9.13
2022-11-27T09:04:08.525Z,9.17
2022-11-27T09:06:36.332Z,8.53
2022-11-27T09:09:04.849Z,9.13
2022-11-27T09:11:32.511Z,8.30
2022-11-27T09:14:00.392Z,7.27
2022-11-27T09:16:29.102Z,10.73
2022-11-27T09:18:56.673Z,8.93
2022-11-27T09:21:27.143Z,6.53
2022-11-27T09:23:55.191Z,7.30
2022-11-27T09:26:25.898Z,11.07
2022-11-27T09:28:56.458Z,7.87
2022-11-27T09:31:23.910Z,8.87
2022-11-27T09:33:51.215Z,8.87
2022-11-27T09:36:19.957Z,10.37
2022-11-27T09:38:47.326Z,7.27
2022-11-27T09:41:24.424Z,8.03
2022-11-27T09:43:54.309Z,9.30
2022-11-27T09:46:31.774Z,8.97
2022-11-27T09:49:00.478Z,9.73
2022-11-27T09:51:31.682Z,8.27
2022-11-27T09:54:07.393Z,8.50
2022-11-27T09:56:36.378Z,7.40
2022-11-27T09:59:04.581Z,7.53
2022-11-27T10:01:42.029Z,7.73
2022-11-27T10:04:11.815Z,8.50
2022-11-27T10:06:45.092Z,10.20
2022-11-27T10:09:21.338Z,7.97
2022-11-27T10:11:51.433Z,8.10
2022-11-27T10:14:18.604Z,9.17
2022-11-27T10:16:51.224Z,10.80
2022-11-27T10:19:21.377Z,9.13
2022-11-27T10:21:48.417Z,9.10
2022-11-27T10:24:24.764Z,10.03
2022-11-27T10:26:53.974Z,10.30
2022-11-27T10:29:24.169Z,9.20
2022-11-27T10:32:00.072Z,9.27
2022-11-27T10:34:27.211Z,9.93
2022-11-27T10:36:54.698Z,11.67
2022-11-27T10:39:43.937Z,11.47
2022-11-27T10:42:11.075Z,11.13
2022-11-27T10:44:58.473Z,12.07
2022-11-27T10:47:29.685Z,12.63
2022-11-27T10:49:59.487Z,11.10
2022-11-27T10:52:26.830Z,12.20
2022-11-27T10:54:56.636Z,12.50
2022-11-27T10:57:23.718Z,11.40
2022-11-27T11:00:05.265Z,13.43
2022-11-27T11:02:39.560Z,11.47
2022-11-27T11:05:32.816Z,10.80
2022-11-27T11:08:02.409Z,13.30
2022-11-27T11:10:32.369Z,11.20
2022-11-27T11:13:18.022Z,13.03
2022-11-27T11:15:51.937Z,12.33
2022-11-27T11:18:27.352Z,11.07
2022-11-27T11:20:56.077Z,11.60
2022-11-27T11:23:29.034Z,13.93
2022-11-27T11:25:57.780Z,11.17
2022-11-27T11:28:25.396Z,14.27
2022-11-27T11:30:54.034Z,13.97
2022-11-27T11:33:21.178Z,13.60
2022-11-27T11:35:55.884Z,13.17
2022-11-27T11:38:27.490Z,13.60
2022-11-27T11:40:59.187Z,14.10
2022-11-27T11:43:32.099Z,14.03
2022-11-27T11:46:08.526Z,12.60
2022-11-27T11:48:36.402Z,13.03
2022-11-27T11:51:15.474Z,14.83
2022-11-27T11:53:45.369Z,14.63
2022-11-27T11:56:41.867Z,13.17
2022-11-27T11:59:23.293Z,15.17
2022-11-27T12:02:02.641Z,13.77
2022-11-27T12:04:32.907Z,14.37
2022-11-27T12:07:03.508Z,13.93
2022-11-27T12:09:39.452Z,14.43
2022-11-27T12:12:06.517Z,15.83
2022-11-27T12:14:45.859Z,14.93
2022-11-27T12:17:33.216Z,14.57
2022-11-27T12:20:19.378Z,14.87
2022-11-27T12:22:49.550Z,16.07
2022-11-27T12:25:19.448Z,15.33
2022-11-27T12:27:46.514Z,15.37
2022-11-27T12:30:16.706Z,14.40
2022-11-27T12:32:52.121Z,15.47
2022-11-27T12:35:27.483Z,19.20
2022-11-27T12:38:19.151Z,17.83
2022-11-27T12:41:04.998Z,17.07
2022-11-27T12:43:38.242Z,18.87
2022-11-27T12:46:31.462Z,17.43
2022-11-27T12:48:58.588Z,20.10
2022-11-27T12:51:32.708Z,18.30
2022-11-27T12:54:05.726Z,19.20
2022-11-27T12:56:43.330Z,19.93
2022-11-27T12:59:17.316Z,16.60
2022-11-27T13:01:48.008Z,17.73
2022-11-27T13:04:34.119Z,21.93
2022-11-27T13:07:10.520Z,19.47
2022-11-27T13:09:37.717Z,16.43
2022-11-27T13:12:05.018Z,20.57
2022-11-27T13:14:34.969Z,19.10
2022-11-27T13:17:06.823Z,18.40
2022-11-27T13:19:40.608Z,15.03
2022-11-27T13:22:10.330Z,17.30
2022-11-27T13:24:37.519Z,17.63
2022-11-27T13:27:07.942Z,19.67
2022-11-27T13:29:40.976Z,16.60
2022-11-27T13:32:09.432Z,16.73
2022-11-27T13:34:44.928Z,19.93
2022-11-27T13:37:25.145Z,16.43
2022-11-27T13:39:59.193Z,15.40
2022-11-27T13:42:28.568Z,14.53
2022-11-27T13:44:57.796Z,15.70
2022-11-27T13:47:26.502Z,17.33
2022-11-27T13:50:19.740Z,16.77
2022-11-27T13:52:54.803Z,16.30
2022-11-27T13:55:26.533Z,16.27
2022-11-27T13:57:54.642Z,15.63
2022-11-27T14:00:32.204Z,16.97
2022-11-27T14:02:59.326Z,14.93
2022-11-27T14:05:56.028Z,17.80
2022-11-27T14:08:31.489Z,15.20
2022-11-27T14:10:59.922Z,16.93
2022-11-27T14:13:45.924Z,13.10
2022-11-27T14:16:19.197Z,15.27
2022-11-27T14:18:54.129Z,17.40
2022-11-27T14:21:24.615Z,14.13
2022-11-27T14:23:52.807Z,15.33
2022-11-27T14:26:22.089Z,12.93
2022-11-27T14:28:50.711Z,13.30
2022-11-27T14:31:35.306Z,15.00
2022-11-27T14:34:23.246Z,13.50
2022-11-27T14:36:52.012Z,14.27
2022-11-27T14:39:37.936Z,12.40
2022-11-27T14:42:08.472Z,12.37
2022-11-27T14:44:35.738Z,10.93
2022-11-27T14:47:04.548Z,15.07
2022-11-27T14:49:32.252Z,11.03
2022-11-27T14:52:02.691Z,13.97
2022-11-27T14:54:32.164Z,14.07
2022-11-27T14:56:59.332Z,14.47
2022-11-27T14:59:26.625Z,14.50
2022-11-27T15:01:59.827Z,14.90
2022-11-27T15:04:37.338Z,17.73
2022-11-27T15:07:13.200Z,16.40
2022-11-27T15:09:44.516Z,17.93
2022-11-27T15:12:31.371Z,17.00
2022-11-27T15:14:58.532Z,14.03
2022-11-27T15:17:30.428Z,17.03
2022-11-27T15:19:58.353Z,16.90
2022-11-27T15:22:25.594Z,21.13
2022-11-27T15:25:19.135Z,22.17
2022-11-27T15:27:47.312Z,17.43
2022-11-27T15:30:15.812Z,19.57
2022-11-27T15:32:51.554Z,17.37
2022-11-27T15:35:23.990Z,17.77
2022-11-27T15:37:54.085Z,16.40
2022-11-27T15:40:28.056Z,17.30
2022-11-27T15:42:55.209Z,20.13
2022-11-27T15:45:22.669Z,19.00
2022-11-27T15:47:49.822Z,16.87
2022-11-27T15:50:17.534Z,16.03
2022-11-27T15:52:44.612Z,15.07
2022-11-27T15:55:16.009Z,17.67
2022-11-27T15:57:43.310Z,13.20
2022-11-27T16:00:11.036Z,17.17
2022-11-27T16:02:38.707Z,15.03
2022-11-27T16:05:07.090Z,17.07
2022-11-27T16:07:34.618Z,15.87
2022-11-27T16:10:01.736Z,15.37
2022-11-27T16:12:28.827Z,16.27
2022-11-27T16:14:55.974Z,15.10
2022-11-27T16:17:23.086Z,16.13
2022-11-27T16:19:50.236Z,15.67
2022-11-27T16:22:17.374Z,17.10
2022-11-27T16:24:44.794Z,14.90
2022-11-27T16:27:11.927Z,17.07
2022-11-27T16:29:39.025Z,20.00
2022-11-27T16:32:06.645Z,16.17
2022-11-27T16:34:33.845Z,15.07
2022-11-27T16:37:00.964Z,18.37
2022-11-27T16:39:28.057Z,18.70
2022-11-27T16:41:55.155Z,15.53
2022-11-27T16:44:22.245Z,14.17
2022-11-27T16:46:49.321Z,14.67
2022-11-27T16:49:16.440Z,15.97
2022-11-27T16:51:43.873Z,14.10
2022-11-27T16:54:11.847Z,14.17
2022-11-27T16:56:38.965Z,13.50
2022-11-27T16:59:13.918Z,13.57
2022-11-27T17:01:42.299Z,16.87
2022-11-27T17:04:10.708Z,16.83
2022-11-27T17:06:39.206Z,15.43
2022-11-27T17:09:07.378Z,14.53
2022-11-27T17:11:35.860Z,13.40
2022-11-27T17:14:05.422Z,11.50
2022-11-27T17:16:32.866Z,13.30
2022-11-27T17:19:00.225Z,12.03
2022-11-27T17:21:28.739Z,15.40
2022-11-27T17:23:56.908Z,15.30
2022-11-27T17:26:25.007Z,13.50
2022-11-27T17:28:56.067Z,13.80
2022-11-27T17:31:24.798Z,14.03
2022-11-27T17:33:56.705Z,13.47
2022-11-27T17:36:24.274Z,15.23
2022-11-27T17:38:52.049Z,14.70
2022-11-27T17:41:19.660Z,13.40
2022-11-27T17:43:46.796Z,12.90
2022-11-27T17:46:21.531Z,12.77
2022-11-27T17:48:49.481Z,13.90
2022-11-27T17:51:16.858Z,11.67
2022-11-27T17:53:44.265Z,13.57
2022-11-27T17:56:12.559Z,11.93
2022-11-27T17:58:40.106Z,11.90
2022-11-27T18:01:07.990Z,13.27
2022-11-27T18:03:35.192Z,11.67
2022-11-27T18:06:06.265Z,12.13
2022-11-27T18:08:33.405Z,13.70
2022-11-27T18:11:07.609Z,11.67
2022-11-27T18:13:34.737Z,14.70
2022-11-27T18:16:15.835Z,11.13
2022-11-27T18:18:43.950Z,11.73
2022-11-27T18:21:18.608Z,10.43
2022-11-27T18:24:20.719Z,13.73
2022-11-27T18:27:00.346Z,13.50
2022-11-27T18:29:21.658Z,12.83
2022-11-27T18:31:50.259Z,10.07
2022-11-27T18:34:17.387Z,12.13
2022-11-27T18:36:45.434Z,9.80
2022-11-27T18:39:12.886Z,10.20
2022-11-27T18:41:40.069Z,11.33
2022-11-27T18:44:07.204Z,9.53
2022-11-27T18:46:34.399Z,11.53
2022-11-27T18:49:01.607Z,11.17
2022-11-27T18:51:28.755Z,10.53
2022-11-27T18:53:56.589Z,10.43
2022-11-27T18:56:25.541Z,8.10
2022-11-27T18:58:53.873Z,10.03
2022-11-27T19:01:25.580Z,8.60
2022-11-27T19:03:53.048Z,9.93
2022-11-27T19:06:21.170Z,7.17
2022-11-27T19:08:48.719Z,8.60
2022-11-27T19:11:20.030Z,7.80
2022-11-27T19:13:48.158Z,8.63
2022-11-27T19:16:20.011Z,9.67
2022-11-27T19:18:47.570Z,9.23
2022-11-27T19:21:16.115Z,9.03
2022-11-27T19:23:43.283Z,11.10
2022-11-27T19:26:11.468Z,8.80
2022-11-27T19:28:38.841Z,10.07
2022-11-27T19:31:07.311Z,8.63
2022-11-27T19:33:36.505Z,8.87
2022-11-27T19:36:05.582Z,8.93
2022-11-27T19:38:32.690Z,8.93
2022-11-27T19:40:59.927Z,9.37
2022-11-27T19:43:27.033Z,7.60
2022-11-27T19:45:54.379Z,8.07
2022-11-27T19:48:23.295Z,8.50
2022-11-27T19:50:51.686Z,10.40
2022-11-27T19:53:19.056Z,9.17
2022-11-27T19:55:52.975Z,7.77
2022-11-27T19:58:20.155Z,8.43
2022-11-27T20:00:47.593Z,7.93
2022-11-27T20:03:14.726Z,9.27
2022-11-27T20:05:41.894Z,7.47
2022-11-27T20:08:09.029Z,10.70
2022-11-27T20:10:36.271Z,10.97
2022-11-27T20:13:03.358Z,10.20
2022-11-27T20:15:30.496Z,9.37
2022-11-27T20:17:57.578Z,7.13
2022-11-27T20:20:24.688Z,12.47
2022-11-27T20:22:51.967Z,9.63
2022-11-27T20:25:20.428Z,7.87
2022-11-27T20:27:47.854Z,8.80
2022-11-27T20:30:15.171Z,9.57
2022-11-27T20:32:42.332Z,9.23
2022-11-27T20:35:09.622Z,9.97
2022-11-27T20:37:37.922Z,9.47
2022-11-27T20:40:05.352Z,10.77
2022-11-27T20:42:32.525Z,8.63
2022-11-27T20:45:04.992Z,8.47
2022-11-27T20:47:32.398Z,10.10
2022-11-27T20:49:59.474Z,10.90
2022-11-27T20:52:26.627Z,9.80
2022-11-27T20:54:55.065Z,13.00
2022-11-27T20:57:22.283Z,8.33
2022-11-27T20:59:49.371Z,8.93
2022-11-27T21:02:16.602Z,8.03
2022-11-27T21:04:43.751Z,10.83
2022-11-27T21:07:10.954Z,8.47
2022-11-27T21:09:38.031Z,9.93
2022-11-27T21:12:06.331Z,9.87
2022-11-27T21:14:33.539Z,9.00
2022-11-27T21:17:05.065Z,10.93
2022-11-27T21:19:32.538Z,10.13
2022-11-27T21:21:59.690Z,8.50
2022-11-27T21:24:28.459Z,7.47
2022-11-27T21:26:55.757Z,9.83
2022-11-27T21:29:25.720Z,9.13
2022-11-27T21:31:53.836Z,9.53
2022-11-27T21:34:21.010Z,8.80
2022-11-27T21:36:48.130Z,9.37
2022-11-27T21:39:22.142Z,10.50
2022-11-27T21:41:50.157Z,7.50
2022-11-27T21:44:18.529Z,9.50
2022-11-27T21:46:46.193Z,9.40
2022-11-27T21:49:13.973Z,9.97
2022-11-27T21:51:41.698Z,10.90
2022-11-27T21:54:10.594Z,7.90
2022-11-27T21:56:40.120Z,8.30
2022-11-27T21:59:12.333Z,8.50
2022-11-27T22:01:39.592Z,9.07
2022-11-27T22:04:06.792Z,7.33
2022-11-27T22:06:37.996Z,8.50
2022-11-27T22:09:07.418Z,10.17
2022-11-27T22:11:37.779Z,7.83
2022-11-27T22:14:06.337Z,10.53
2022-11-27T22:16:36.709Z,9.73
2022-11-27T22:19:07.131Z,10.77
2022-11-27T22:21:34.393Z,8.50
2022-11-27T22:24:01.690Z,9.03
2022-11-27T22:26:29.384Z,11.13
2022-11-27T22:28:57.837Z,8.03
2022-11-27T22:31:26.933Z,9.97
2022-11-27T22:33:54.362Z,12.07
2022-11-27T22:36:24.530Z,7.97
2022-11-27T22:38:53.004Z,10.00
2022-11-27T22:41:21.343Z,10.03
2022-11-27T22:43:48.447Z,8.67
2022-11-27T22:46:20.346Z,9.37
2022-11-27T22:48:47.787Z,10.53
2022-11-27T22:51:14.892Z,11.73
2022-11-27T22:53:43.034Z,12.97
2022-11-27T22:56:11.900Z,9.43
2022-11-27T22:58:41.624Z,12.10
2022-11-27T23:01:19.574Z,12.43
2022-11-27T23:03:46.876Z,11.23
2022-11-27T23:06:15.511Z,11.13
2022-11-27T23:08:43.460Z,10.23
2022-11-27T23:11:11.106Z,11.17
2022-11-27T23:13:38.199Z,12.53
2022-11-27T23:16:06.265Z,9.97
2022-11-27T23:18:33.886Z,12.00
2022-11-27T23:21:00.947Z,11.60
2022-11-27T23:23:28.017Z,15.70
2022-11-27T23:25:55.115Z,11.90
2022-11-27T23:28:22.194Z,12.80
2022-11-27T23:31:03.103Z,12.00
2022-11-27T23:33:36.261Z,15.83
2022-11-27T23:36:03.877Z,9.60
2022-11-27T23:38:31.228Z,12.30
2022-11-27T23:41:07.310Z,12.53
2022-11-27T23:43:34.402Z,9.67
2022-11-27T23:46:03.560Z,11.87
2022-11-27T23:48:30.659Z,9.20
2022-11-27T23:50:57.759Z,9.63
2022-11-27T23:53:24.906Z,13.50
2022-11-27T23:55:51.977Z,9.67
2022-11-27T23:58:19.088Z,11.80
